createdAt,value
2022-09-28T00:01:22.342Z,14.08
2022-09-28T00:03:51.904Z,14.01
2022-09-28T00:06:21.644Z,14.08
2022-09-28T00:08:50.147Z,14.13
2022-09-28T00:11:19.153Z,13.97
2022-09-28T00:13:50.148Z,14.00
2022-09-28T00:16:21.373Z,14.00
2022-09-28T00:18:51.232Z,13.97
2022-09-28T00:21:24.372Z,13.90
2022-09-28T00:24:15.716Z,14.01
2022-09-28T00:26:47.946Z,13.95
2022-09-28T00:29:17.153Z,13.95
2022-09-28T00:31:44.968Z,13.89
2022-09-28T00:34:13.008Z,13.87
2022-09-28T00:36:43.654Z,13.76
2022-09-28T00:39:12.252Z,13.77
2022-09-28T00:41:39.880Z,13.82
2022-09-28T00:44:22.391Z,13.83
2022-09-28T00:47:10.491Z,13.80
2022-09-28T00:49:51.548Z,13.80
2022-09-28T00:52:25.413Z,13.68
2022-09-28T00:54:53.520Z,13.72
2022-09-28T00:57:22.776Z,13.71
2022-09-28T00:59:51.327Z,13.79
2022-09-28T01:02:39.064Z,13.66
2022-09-28T01:05:07.950Z,13.71
2022-09-28T01:07:35.832Z,13.51
2022-09-28T01:10:04.550Z,13.67
2022-09-28T01:12:32.141Z,13.68
2022-09-28T01:15:00.555Z,13.54
2022-09-28T01:17:37.706Z,13.52
2022-09-28T01:20:31.746Z,13.51
2022-09-28T01:23:19.041Z,13.61
2022-09-28T01:25:54.903Z,13.72
2022-09-28T01:28:26.589Z,13.81
2022-09-28T01:31:08.277Z,13.82
2022-09-28T01:33:45.386Z,13.77
2022-09-28T01:36:17.883Z,13.89
2022-09-28T01:38:49.499Z,13.99
2022-09-28T01:41:17.853Z,13.95
2022-09-28T01:43:51.698Z,13.98
2022-09-28T01:46:24.100Z,13.96
2022-09-28T01:48:57.260Z,13.85
2022-09-28T01:51:42.676Z,13.71
2022-09-28T01:54:15.180Z,13.82
2022-09-28T01:56:54.325Z,13.97
2022-09-28T01:59:28.559Z,13.97
2022-09-28T02:02:00.878Z,13.92
2022-09-28T02:04:32.838Z,14.01
2022-09-28T02:07:24.520Z,14.00
2022-09-28T02:09:57.103Z,14.04
2022-09-28T02:12:34.616Z,14.17
2022-09-28T02:15:15.156Z,14.07
2022-09-28T02:17:42.916Z,13.85
2022-09-28T02:20:13.143Z,13.96
2022-09-28T02:22:44.325Z,13.97
2022-09-28T02:25:38.174Z,13.99
2022-09-28T02:28:08.001Z,14.00
2022-09-28T02:30:37.832Z,13.96
2022-09-28T02:33:20.017Z,13.91
2022-09-28T02:35:48.936Z,13.95
2022-09-28T02:38:17.045Z,13.98
2022-09-28T02:40:54.781Z,13.98
2022-09-28T02:43:30.121Z,14.07
2022-09-28T02:46:22.311Z,14.04
2022-09-28T02:49:21.488Z,14.09
2022-09-28T02:51:58.672Z,13.99
2022-09-28T02:54:39.248Z,14.04
2022-09-28T02:57:25.071Z,14.14
2022-09-28T03:00:10.579Z,14.14
2022-09-28T03:02:58.440Z,14.08
2022-09-28T03:05:41.272Z,14.14
2022-09-28T03:08:14.527Z,14.15
2022-09-28T03:10:46.544Z,14.05
2022-09-28T03:13:16.461Z,14.02
2022-09-28T03:15:48.648Z,13.98
2022-09-28T03:18:17.476Z,14.01
2022-09-28T03:20:45.225Z,14.10
2022-09-28T03:23:24.505Z,14.17
2022-09-28T03:25:52.900Z,14.13
2022-09-28T03:28:21.359Z,14.03
2022-09-28T03:30:49.365Z,14.01
2022-09-28T03:33:17.232Z,14.04
2022-09-28T03:35:47.729Z,13.94
2022-09-28T03:38:15.464Z,13.94
2022-09-28T03:40:43.323Z,13.97
2022-09-28T03:43:10.763Z,14.06
2022-09-28T03:45:38.447Z,14.05
2022-09-28T03:48:06.048Z,13.91
2022-09-28T03:50:34.198Z,13.95
2022-09-28T03:53:02.798Z,13.97
2022-09-28T03:55:31.169Z,13.92
2022-09-28T03:57:58.579Z,13.88
2022-09-28T04:00:28.571Z,13.82
2022-09-28T04:02:56.192Z,13.82
2022-09-28T04:05:23.515Z,13.76
2022-09-28T04:07:51.052Z,13.75
2022-09-28T04:10:18.639Z,13.67
2022-09-28T04:12:45.950Z,13.69
2022-09-28T04:15:14.993Z,13.73
2022-09-28T04:17:43.193Z,13.73
2022-09-28T04:20:12.285Z,13.77
2022-09-28T04:22:39.780Z,13.78
2022-09-28T04:25:07.786Z,13.70
2022-09-28T04:27:54.005Z,13.73
2022-09-28T04:30:21.938Z,13.86
2022-09-28T04:32:49.497Z,13.77
2022-09-28T04:35:17.224Z,13.66
2022-09-28T04:37:44.817Z,13.76
2022-09-28T04:40:12.136Z,13.73
2022-09-28T04:42:39.503Z,13.68
2022-09-28T04:45:07.827Z,13.57
2022-09-28T04:47:35.734Z,13.55
2022-09-28T04:50:07.695Z,13.50
2022-09-28T04:52:36.823Z,13.44
2022-09-28T04:55:05.623Z,13.40
2022-09-28T04:57:36.644Z,13.40
2022-09-28T05:00:05.350Z,13.42
2022-09-28T05:02:34.159Z,13.46
2022-09-28T05:05:02.807Z,13.36
2022-09-28T05:07:31.206Z,13.32
2022-09-28T05:10:00.547Z,13.22
2022-09-28T05:12:27.973Z,13.22
2022-09-28T05:14:56.503Z,13.13
2022-09-28T05:17:23.839Z,13.33
2022-09-28T05:19:53.209Z,13.40
2022-09-28T05:22:20.880Z,13.41
2022-09-28T05:24:48.173Z,13.38
2022-09-28T05:27:15.817Z,13.37
2022-09-28T05:29:45.426Z,13.30
2022-09-28T05:32:13.754Z,13.28
2022-09-28T05:34:41.643Z,13.34
2022-09-28T05:37:09.957Z,13.37
2022-09-28T05:39:37.352Z,13.59
2022-09-28T05:42:04.682Z,13.48
2022-09-28T05:44:32.723Z,14.02
2022-09-28T05:47:00.092Z,14.35
2022-09-28T05:49:31.563Z,14.59
2022-09-28T05:51:59.897Z,14.81
2022-09-28T05:54:27.434Z,15.04
2022-09-28T05:56:54.776Z,15.28
2022-09-28T05:59:22.441Z,15.46
2022-09-28T06:01:50.003Z,15.64
2022-09-28T06:04:17.664Z,15.80
2022-09-28T06:06:45.136Z,16.07
2022-09-28T06:09:12.520Z,16.21
2022-09-28T06:11:40.412Z,16.43
2022-09-28T06:14:08.736Z,16.75
2022-09-28T06:16:39.355Z,16.73
2022-09-28T06:19:11.843Z,16.94
2022-09-28T06:21:39.349Z,17.13
2022-09-28T06:24:07.249Z,17.26
2022-09-28T06:26:36.176Z,17.44
2022-09-28T06:29:04.952Z,17.44
2022-09-28T06:31:32.314Z,17.43
2022-09-28T06:34:02.025Z,17.58
2022-09-28T06:36:31.297Z,17.62
2022-09-28T06:38:58.883Z,17.85
2022-09-28T06:41:26.884Z,17.87
2022-09-28T06:43:54.266Z,18.10
2022-09-28T06:46:24.433Z,18.05
2022-09-28T06:48:54.541Z,18.16
2022-09-28T06:51:22.997Z,18.38
2022-09-28T06:53:53.785Z,18.57
2022-09-28T06:56:21.455Z,18.43
2022-09-28T06:58:48.826Z,18.47
2022-09-28T07:01:16.177Z,18.27
2022-09-28T07:03:45.840Z,18.47
2022-09-28T07:06:14.787Z,18.39
2022-09-28T07:08:43.326Z,18.39
2022-09-28T07:11:17.500Z,18.40
2022-09-28T07:13:51.336Z,18.39
2022-09-28T07:16:22.871Z,18.44
2022-09-28T07:18:54.298Z,18.48
2022-09-28T07:21:28.975Z,18.68
2022-09-28T07:23:57.473Z,18.52
2022-09-28T07:26:26.159Z,18.56
2022-09-28T07:28:55.701Z,18.44
2022-09-28T07:31:25.193Z,18.59
2022-09-28T07:33:53.965Z,18.50
2022-09-28T07:36:22.794Z,18.54
2022-09-28T07:38:51.213Z,18.61
2022-09-28T07:41:26.980Z,18.64
2022-09-28T07:43:55.388Z,18.76
2022-09-28T07:46:23.005Z,18.91
2022-09-28T07:48:51.727Z,19.00
2022-09-28T07:51:21.208Z,19.02
2022-09-28T07:53:49.981Z,19.06
2022-09-28T07:56:20.326Z,19.05
2022-09-28T07:58:48.664Z,19.24
2022-09-28T08:01:19.166Z,19.21
2022-09-28T08:03:47.985Z,19.26
2022-09-28T08:06:17.083Z,19.18
2022-09-28T08:08:44.832Z,19.14
2022-09-28T08:11:15.034Z,19.35
2022-09-28T08:13:43.907Z,19.28
2022-09-28T08:16:13.566Z,19.32
2022-09-28T08:18:41.144Z,19.26
2022-09-28T08:21:28.784Z,19.23
2022-09-28T08:23:56.460Z,19.32
2022-09-28T08:26:23.827Z,19.15
2022-09-28T08:28:51.429Z,19.35
2022-09-28T08:31:21.534Z,19.32
2022-09-28T08:33:53.647Z,19.31
2022-09-28T08:36:28.238Z,19.40
2022-09-28T08:38:56.582Z,19.48
2022-09-28T08:41:48.308Z,19.44
2022-09-28T08:44:24.003Z,19.34
2022-09-28T08:47:00.745Z,19.26
2022-09-28T08:49:34.465Z,19.15
2022-09-28T08:52:33.276Z,19.46
2022-09-28T08:55:33.130Z,19.46
2022-09-28T08:58:37.135Z,19.67
2022-09-28T09:01:07.811Z,19.48
2022-09-28T09:03:44.498Z,19.83
2022-09-28T09:06:33.265Z,19.75
2022-09-28T09:09:12.936Z,19.90
2022-09-28T09:12:07.698Z,19.97
2022-09-28T09:14:55.588Z,19.89
2022-09-28T09:17:29.038Z,20.04
2022-09-28T09:20:04.535Z,20.06
2022-09-28T09:22:59.021Z,19.86
2022-09-28T09:25:29.153Z,19.91
2022-09-28T09:28:24.620Z,20.06
2022-09-28T09:31:03.025Z,20.08
2022-09-28T09:33:38.669Z,19.85
2022-09-28T09:36:32.160Z,19.89
2022-09-28T09:39:02.767Z,19.85
2022-09-28T09:41:49.975Z,19.72
2022-09-28T09:44:36.668Z,19.94
2022-09-28T09:47:08.062Z,20.03
2022-09-28T09:50:30.559Z,20.29
2022-09-28T09:53:20.868Z,20.39
2022-09-28T09:55:54.799Z,20.38
2022-09-28T09:58:30.227Z,20.44
2022-09-28T10:01:10.485Z,20.36
2022-09-28T10:03:42.415Z,20.23
2022-09-28T10:06:16.886Z,20.12
2022-09-28T10:08:48.690Z,19.91
2022-09-28T10:11:27.315Z,20.02
2022-09-28T10:13:55.287Z,19.90
2022-09-28T10:16:25.081Z,19.79
2022-09-28T10:18:52.880Z,19.66
2022-09-28T10:21:23.763Z,19.76
2022-09-28T10:24:00.382Z,19.78
2022-09-28T10:26:39.533Z,19.68
2022-09-28T10:29:26.492Z,19.90
2022-09-28T10:31:54.537Z,19.72
2022-09-28T10:34:30.800Z,19.77
2022-09-28T10:37:03.317Z,19.55
2022-09-28T10:39:34.495Z,19.88
2022-09-28T10:42:06.328Z,19.86
2022-09-28T10:44:47.449Z,19.84
2022-09-28T10:47:18.831Z,19.63
2022-09-28T10:49:48.772Z,19.85
2022-09-28T10:52:42.709Z,19.93
2022-09-28T10:55:24.708Z,19.87
2022-09-28T10:57:53.073Z,19.92
2022-09-28T11:00:34.499Z,19.74
2022-09-28T11:03:03.144Z,19.72
2022-09-28T11:05:31.086Z,19.69
2022-09-28T11:08:00.847Z,19.69
2022-09-28T11:10:30.795Z,19.81
2022-09-28T11:12:58.608Z,19.68
2022-09-28T11:15:29.005Z,19.93
2022-09-28T11:17:57.452Z,20.20
2022-09-28T11:20:27.774Z,20.34
2022-09-28T11:22:59.700Z,20.45
2022-09-28T11:25:28.961Z,20.46
2022-09-28T11:28:00.506Z,20.32
2022-09-28T11:30:33.537Z,20.73
2022-09-28T11:33:05.026Z,20.57
2022-09-28T11:35:48.832Z,20.75
2022-09-28T11:38:23.611Z,20.74
2022-09-28T11:41:24.841Z,20.71
2022-09-28T11:43:57.815Z,20.77
2022-09-28T11:46:44.312Z,20.65
2022-09-28T11:50:07.779Z,20.67
2022-09-28T11:52:48.434Z,20.31
2022-09-28T11:55:27.858Z,20.21
2022-09-28T11:58:26.196Z,20.35
2022-09-28T12:01:25.134Z,20.18
2022-09-28T12:03:57.760Z,20.21
2022-09-28T12:06:36.744Z,20.21
2022-09-28T12:09:16.351Z,19.94
2022-09-28T12:11:45.846Z,19.85
2022-09-28T12:14:32.683Z,19.89
2022-09-28T12:17:20.220Z,20.09
2022-09-28T12:20:10.725Z,20.08
2022-09-28T12:22:42.724Z,19.99
2022-09-28T12:25:12.122Z,19.49
2022-09-28T12:27:49.385Z,19.67
2022-09-28T12:30:26.948Z,19.71
2022-09-28T12:32:59.316Z,19.70
2022-09-28T12:35:48.567Z,19.58
2022-09-28T12:38:15.729Z,19.83
2022-09-28T12:41:01.781Z,19.84
2022-09-28T12:43:41.420Z,20.24
2022-09-28T12:46:27.970Z,20.05
2022-09-28T12:55:33.210Z,20.01
2022-09-28T12:58:26.190Z,20.16
2022-09-28T13:01:15.532Z,20.38
2022-09-28T13:04:11.502Z,20.44
2022-09-28T13:06:52.137Z,20.50
2022-09-28T13:09:24.353Z,20.42
2022-09-28T13:11:54.386Z,20.22
2022-09-28T13:14:55.248Z,19.96
2022-09-28T13:17:53.724Z,19.94
2022-09-28T13:20:32.228Z,19.95
2022-09-28T13:23:16.463Z,19.75
2022-09-28T13:25:51.116Z,19.85
2022-09-28T13:28:21.289Z,19.74
2022-09-28T13:30:51.536Z,19.85
2022-09-28T13:33:39.611Z,19.59
2022-09-28T13:36:28.443Z,19.92
2022-09-28T13:38:57.156Z,19.71
2022-09-28T13:41:34.491Z,19.90
2022-09-28T13:44:11.006Z,19.98
2022-09-28T13:47:10.115Z,20.03
2022-09-28T13:49:56.502Z,19.96
2022-09-28T13:52:46.052Z,19.91
2022-09-28T13:55:28.916Z,19.82
2022-09-28T13:58:00.916Z,19.68
2022-09-28T14:00:29.468Z,19.75
2022-09-28T14:03:06.174Z,19.48
2022-09-28T14:05:53.221Z,19.67
2022-09-28T14:09:05.487Z,19.73
2022-09-28T14:11:35.752Z,19.66
2022-09-28T14:14:11.706Z,19.57
2022-09-28T14:16:39.828Z,19.66
2022-09-28T14:19:08.433Z,19.39
2022-09-28T14:21:44.632Z,19.44
2022-09-28T14:24:30.173Z,19.43
2022-09-28T14:27:12.644Z,19.48
2022-09-28T14:29:40.588Z,19.51
2022-09-28T14:32:07.746Z,19.52
2022-09-28T14:34:41.926Z,19.52
2022-09-28T14:37:40.673Z,19.58
2022-09-28T14:40:39.925Z,19.46
2022-09-28T14:43:35.715Z,19.47
2022-09-28T14:46:12.278Z,19.70
2022-09-28T14:49:04.273Z,19.83
2022-09-28T14:51:54.404Z,19.94
2022-09-28T14:54:23.473Z,19.86
2022-09-28T14:56:53.478Z,19.97
2022-09-28T14:59:38.486Z,19.68
2022-09-28T15:02:13.345Z,19.65
2022-09-28T15:04:53.108Z,19.70
2022-09-28T15:07:30.170Z,19.56
2022-09-28T15:09:58.307Z,19.52
2022-09-28T15:12:28.051Z,19.62
2022-09-28T15:14:56.493Z,19.76
2022-09-28T15:17:30.440Z,19.63
2022-09-28T15:20:21.785Z,19.61
2022-09-28T15:22:50.848Z,19.64
2022-09-28T15:25:20.798Z,19.58
2022-09-28T15:27:54.178Z,19.32
2022-09-28T15:30:26.863Z,19.34
2022-09-28T15:33:17.680Z,19.46
2022-09-28T15:35:50.810Z,19.58
2022-09-28T15:38:18.304Z,19.55
2022-09-28T15:40:47.458Z,19.45
2022-09-28T15:43:30.168Z,19.56
2022-09-28T15:46:13.197Z,19.51
2022-09-28T15:48:45.863Z,19.64
2022-09-28T15:51:13.465Z,19.52
2022-09-28T15:53:56.018Z,19.32
2022-09-28T15:56:24.550Z,19.33
2022-09-28T15:59:10.494Z,19.27
2022-09-28T16:01:39.663Z,19.32
2022-09-28T16:04:33.855Z,19.32
2022-09-28T16:07:10.162Z,19.36
2022-09-28T16:10:01.156Z,19.46
2022-09-28T16:12:35.761Z,19.38
2022-09-28T16:15:16.147Z,19.27
2022-09-28T16:17:43.801Z,19.33
2022-09-28T16:20:24.622Z,19.38
2022-09-28T16:22:53.403Z,19.11
2022-09-28T16:25:26.067Z,19.15
2022-09-28T16:27:55.317Z,19.16
2022-09-28T16:30:28.817Z,19.08
2022-09-28T16:33:28.865Z,19.05
2022-09-28T16:36:02.087Z,18.99
2022-09-28T16:38:29.379Z,19.05
2022-09-28T16:40:59.374Z,19.00
2022-09-28T16:43:30.235Z,19.11
2022-09-28T16:46:05.791Z,19.04
2022-09-28T16:48:35.782Z,19.06
2022-09-28T16:51:03.373Z,19.16
2022-09-28T16:53:48.900Z,19.19
2022-09-28T16:56:16.481Z,18.99
2022-09-28T16:58:44.156Z,18.93
2022-09-28T17:01:12.243Z,19.18
2022-09-28T17:03:44.465Z,19.19
2022-09-28T17:06:12.230Z,19.27
2022-09-28T17:08:39.884Z,19.19
2022-09-28T17:11:16.860Z,19.21
2022-09-28T17:13:48.280Z,19.13
2022-09-28T17:16:18.468Z,18.84
2022-09-28T17:18:46.888Z,19.05
2022-09-28T17:21:19.882Z,18.74
2022-09-28T17:23:48.934Z,18.91
2022-09-28T17:26:34.382Z,18.84
2022-09-28T17:29:02.074Z,18.76
2022-09-28T17:31:29.754Z,18.74
2022-09-28T17:33:57.051Z,18.72
2022-09-28T17:36:25.892Z,18.83
2022-09-28T17:38:53.505Z,18.92
2022-09-28T17:41:21.186Z,18.86
2022-09-28T17:43:49.288Z,18.92
2022-09-28T17:46:34.920Z,18.84
2022-09-28T17:49:04.350Z,18.87
2022-09-28T17:51:34.862Z,18.76
2022-09-28T17:54:02.229Z,18.69
2022-09-28T17:56:32.414Z,18.66
2022-09-28T17:59:03.273Z,18.64
2022-09-28T18:01:34.132Z,18.52
2022-09-28T18:04:07.451Z,18.46
2022-09-28T18:06:36.644Z,18.37
2022-09-28T18:09:04.778Z,18.39
2022-09-28T18:11:33.355Z,18.28
2022-09-28T18:14:00.991Z,18.32
2022-09-28T18:16:29.230Z,18.36
2022-09-28T18:18:58.388Z,18.23
2022-09-28T18:21:25.760Z,18.18
2022-09-28T18:23:56.375Z,18.21
2022-09-28T18:26:23.714Z,18.19
2022-09-28T18:28:54.824Z,18.00
2022-09-28T18:31:22.704Z,17.96
2022-09-28T18:33:50.208Z,18.03
2022-09-28T18:36:17.584Z,17.95
2022-09-28T18:38:45.241Z,17.90
2022-09-28T18:41:15.544Z,17.78
2022-09-28T18:43:48.848Z,17.84
2022-09-28T18:46:18.220Z,17.94
2022-09-28T18:48:48.094Z,17.91
2022-09-28T18:51:15.711Z,17.88
2022-09-28T18:53:45.805Z,17.84
2022-09-28T18:56:18.468Z,17.71
2022-09-28T18:58:46.904Z,17.72
2022-09-28T19:01:32.645Z,17.82
2022-09-28T19:04:05.820Z,17.60
2022-09-28T19:06:44.319Z,17.79
2022-09-28T19:09:12.464Z,17.85
2022-09-28T19:11:39.789Z,17.87
2022-09-28T19:14:11.005Z,17.90
2022-09-28T19:16:38.570Z,17.79
2022-09-28T19:19:06.890Z,17.93
2022-09-28T19:21:34.814Z,17.93
2022-09-28T19:24:03.158Z,17.99
2022-09-28T19:26:31.613Z,18.05
2022-09-28T19:28:59.714Z,18.13
2022-09-28T19:31:28.047Z,18.09
2022-09-28T19:33:55.588Z,18.13
2022-09-28T19:36:24.880Z,17.92
2022-09-28T19:38:53.320Z,17.93
2022-09-28T19:41:44.850Z,17.89
2022-09-28T19:44:27.436Z,17.85
2022-09-28T19:46:59.120Z,17.84
2022-09-28T19:49:27.735Z,17.70
2022-09-28T19:52:14.246Z,17.65
2022-09-28T19:54:56.654Z,17.70
2022-09-28T19:57:28.352Z,17.75
2022-09-28T20:00:16.760Z,17.57
2022-09-28T20:02:44.395Z,17.55
2022-09-28T20:05:11.724Z,17.53
2022-09-28T20:07:39.759Z,17.57
2022-09-28T20:10:07.552Z,17.56
2022-09-28T20:12:35.090Z,17.58
2022-09-28T20:15:35.802Z,17.60
2022-09-28T20:18:03.695Z,17.46
2022-09-28T20:20:30.987Z,17.49
2022-09-28T20:22:58.383Z,17.52
2022-09-28T20:25:26.311Z,17.44
2022-09-28T20:27:53.799Z,17.45
2022-09-28T20:30:21.130Z,17.50
2022-09-28T20:32:49.752Z,17.34
2022-09-28T20:35:30.403Z,17.43
2022-09-28T20:38:09.041Z,17.44
2022-09-28T20:40:37.216Z,17.40
2022-09-28T20:43:06.369Z,17.49
2022-09-28T20:45:39.488Z,17.35
2022-09-28T20:50:34.690Z,17.38
2022-09-28T20:53:02.045Z,17.39
2022-09-28T20:55:29.766Z,17.48
2022-09-28T20:58:02.147Z,17.43
2022-09-28T21:00:30.029Z,17.51
2022-09-28T21:02:57.514Z,17.32
2022-09-28T21:05:24.888Z,17.31
2022-09-28T21:07:52.435Z,17.34
2022-09-28T21:10:19.775Z,17.30
2022-09-28T21:12:53.025Z,17.18
2022-09-28T21:15:20.596Z,17.33
2022-09-28T21:17:47.938Z,17.15
2022-09-28T21:20:15.275Z,17.19
2022-09-28T21:22:42.819Z,17.21
2022-09-28T21:25:10.118Z,17.19
2022-09-28T21:27:37.425Z,17.20
2022-09-28T21:30:05.599Z,17.26
2022-09-28T21:32:35.115Z,17.18
2022-09-28T21:35:02.401Z,17.21
2022-09-28T21:37:29.972Z,17.26
2022-09-28T21:39:57.257Z,17.14
2022-09-28T21:42:24.534Z,17.15
2022-09-28T21:44:54.411Z,17.07
2022-09-28T21:47:23.615Z,17.09
2022-09-28T21:49:50.971Z,17.20
2022-09-28T21:52:18.514Z,17.08
2022-09-28T21:54:45.829Z,16.92
2022-09-28T21:57:13.126Z,17.07
2022-09-28T21:59:40.701Z,17.09
